sensor_id;sensor_type;location;lat;lon;timestamp;pressure;altitude;pressure_sealevel;temperature;humidity
12211;BME280;6168;42.658;23.298;2024-02-04T00:02:15;61753.13;;;-139.92;67.77
12211;BME280;6168;42.658;23.298;2024-02-04T00:04:42;61736.47;;;-139.92;67.53
12211;BME280;6168;42.658;23.298;2024-02-04T00:07:10;61701.09;;;-139.92;66.91
12211;BME280;6168;42.658;23.298;2024-02-04T00:09:37;61705.25;;;-139.92;66.97
12211;BME280;6168;42.658;23.298;2024-02-04T00:12:04;61715.66;;;-139.92;67.42
12211;BME280;6168;42.658;23.298;2024-02-04T00:14:31;61736.47;;;-139.92;67.36
12211;BME280;6168;42.658;23.298;2024-02-04T00:16:58;61717.75;;;-139.92;67.70
12211;BME280;6168;42.658;23.298;2024-02-04T00:19:25;61723.97;;;-139.92;67.38
12211;BME280;6168;42.658;23.298;2024-02-04T00:21:51;61736.47;;;-139.92;67.38
12211;BME280;6168;42.658;23.298;2024-02-04T00:24:20;61717.75;;;-139.92;67.60
12211;BME280;6168;42.658;23.298;2024-02-04T00:26:46;61740.63;;;-139.92;67.97
12211;BME280;6168;42.658;23.298;2024-02-04T00:29:13;61748.94;;;-139.92;68.46
12211;BME280;6168;42.658;23.298;2024-02-04T00:31:40;61744.78;;;-139.92;68.88
12211;BME280;6168;42.658;23.298;2024-02-04T00:34:06;61751.03;;;-139.92;68.67
12211;BME280;6168;42.658;23.298;2024-02-04T00:36:33;61717.75;;;-139.92;69.32
12211;BME280;6168;42.658;23.298;2024-02-04T00:39:00;61742.72;;;-139.92;69.45
12211;BME280;6168;42.658;23.298;2024-02-04T00:41:28;61732.31;;;-139.92;69.88
12211;BME280;6168;42.658;23.298;2024-02-04T00:43:55;61734.38;;;-139.92;69.84
12211;BME280;6168;42.658;23.298;2024-02-04T00:46:22;61721.91;;;-139.92;69.99
12211;BME280;6168;42.658;23.298;2024-02-04T00:48:48;61732.31;;;-139.92;70.19
12211;BME280;6168;42.658;23.298;2024-02-04T00:51:15;61730.22;;;-139.92;71.09
12211;BME280;6168;42.658;23.298;2024-02-04T00:53:42;61755.19;;;-139.92;71.42
12211;BME280;6168;42.658;23.298;2024-02-04T00:56:09;61736.47;;;-139.92;72.16
12211;BME280;6168;42.658;23.298;2024-02-04T00:58:37;61751.03;;;-139.92;72.41
12211;BME280;6168;42.658;23.298;2024-02-04T01:01:04;61717.75;;;-139.92;72.51
12211;BME280;6168;42.658;23.298;2024-02-04T01:03:31;61738.56;;;-139.92;73.45
12211;BME280;6168;42.658;23.298;2024-02-04T01:05:58;61738.56;;;-139.92;73.37
12211;BME280;6168;42.658;23.298;2024-02-04T01:08:25;61730.22;;;-139.92;73.92
12211;BME280;6168;42.658;23.298;2024-02-04T01:10:52;61746.88;;;-139.92;74.36
12211;BME280;6168;42.658;23.298;2024-02-04T01:13:18;61730.22;;;-139.92;74.63
12211;BME280;6168;42.658;23.298;2024-02-04T01:15:47;61734.38;;;-139.92;75.37
12211;BME280;6168;42.658;23.298;2024-02-04T01:18:13;61742.72;;;-139.92;75.11
12211;BME280;6168;42.658;23.298;2024-02-04T01:20:40;61742.72;;;-139.92;75.61
12211;BME280;6168;42.658;23.298;2024-02-04T01:23:07;61730.22;;;-139.92;75.53
12211;BME280;6168;42.658;23.298;2024-02-04T01:25:34;61701.09;;;-139.92;75.85
12211;BME280;6168;42.658;23.298;2024-02-04T01:28:00;61746.88;;;-139.92;75.71
12211;BME280;6168;42.658;23.298;2024-02-04T01:30:27;61701.09;;;-139.92;76.05
12211;BME280;6168;42.658;23.298;2024-02-04T01:32:57;61726.06;;;-139.92;75.83
12211;BME280;6168;42.658;23.298;2024-02-04T01:35:23;61713.59;;;-139.92;76.65
12211;BME280;6168;42.658;23.298;2024-02-04T01:37:50;61734.38;;;-139.92;76.53
12211;BME280;6168;42.658;23.298;2024-02-04T01:40:17;61734.38;;;-139.92;76.66
12211;BME280;6168;42.658;23.298;2024-02-04T01:42:43;61701.09;;;-139.92;76.80
12211;BME280;6168;42.658;23.298;2024-02-04T01:45:10;61711.50;;;-139.92;76.12
12211;BME280;6168;42.658;23.298;2024-02-04T01:47:37;61719.81;;;-139.92;76.23
12211;BME280;6168;42.658;23.298;2024-02-04T01:50:05;61713.59;;;-139.92;75.98
12211;BME280;6168;42.658;23.298;2024-02-04T01:52:32;61721.91;;;-139.92;76.20
12211;BME280;6168;42.658;23.298;2024-02-04T01:55:00;61738.56;;;-139.92;76.32
12211;BME280;6168;42.658;23.298;2024-02-04T01:57:27;61715.66;;;-139.92;76.60
12211;BME280;6168;42.658;23.298;2024-02-04T01:59:54;61730.22;;;-139.92;76.68
12211;BME280;6168;42.658;23.298;2024-02-04T02:02:22;61723.97;;;-139.92;76.57
12211;BME280;6168;42.658;23.298;2024-02-04T02:04:49;61709.41;;;-139.92;76.42
12211;BME280;6168;42.658;23.298;2024-02-04T02:07:17;61734.38;;;-139.92;76.48
12211;BME280;6168;42.658;23.298;2024-02-04T02:09:45;61711.50;;;-139.92;77.05
12211;BME280;6168;42.658;23.298;2024-02-04T02:12:13;61711.50;;;-139.92;77.06
12211;BME280;6168;42.658;23.298;2024-02-04T02:14:42;61701.09;;;-139.92;77.01
12211;BME280;6168;42.658;23.298;2024-02-04T02:17:11;61728.16;;;-139.92;76.32
12211;BME280;6168;42.658;23.298;2024-02-04T02:19:44;61690.69;;;-139.92;76.30
12211;BME280;6168;42.658;23.298;2024-02-04T02:22:15;61692.78;;;-139.92;76.04
12211;BME280;6168;42.658;23.298;2024-02-04T02:24:45;61709.41;;;-139.92;75.81
12211;BME280;6168;42.658;23.298;2024-02-04T02:27:13;61715.66;;;-139.92;76.12
12211;BME280;6168;42.658;23.298;2024-02-04T02:29:40;61705.25;;;-139.92;75.82
12211;BME280;6168;42.658;23.298;2024-02-04T02:32:06;61711.50;;;-139.92;76.08
12211;BME280;6168;42.658;23.298;2024-02-04T02:34:33;61696.94;;;-139.92;76.48
12211;BME280;6168;42.658;23.298;2024-02-04T02:37:03;61726.06;;;-139.92;76.18
12211;BME280;6168;42.658;23.298;2024-02-04T02:39:34;61723.97;;;-139.92;76.08
12211;BME280;6168;42.658;23.298;2024-02-04T02:42:04;61736.47;;;-139.92;75.75
12211;BME280;6168;42.658;23.298;2024-02-04T02:44:32;61723.97;;;-139.92;74.99
12211;BME280;6168;42.658;23.298;2024-02-04T02:46:59;61682.38;;;-139.92;75.48
12211;BME280;6168;42.658;23.298;2024-02-04T02:49:27;61703.19;;;-139.92;74.69
12211;BME280;6168;42.658;23.298;2024-02-04T02:51:54;61707.34;;;-139.92;74.56
12211;BME280;6168;42.658;23.298;2024-02-04T02:54:20;61705.25;;;-139.92;74.52
12211;BME280;6168;42.658;23.298;2024-02-04T02:56:47;61701.09;;;-139.92;74.40
12211;BME280;6168;42.658;23.298;2024-02-04T02:59:15;61705.25;;;-139.92;74.24
12211;BME280;6168;42.658;23.298;2024-02-04T03:01:42;61694.84;;;-139.92;74.38
12211;BME280;6168;42.658;23.298;2024-02-04T03:04:09;61684.44;;;-139.92;73.85
12211;BME280;6168;42.658;23.298;2024-02-04T03:06:35;61692.78;;;-139.92;73.32
12211;BME280;6168;42.658;23.298;2024-02-04T03:09:02;61686.53;;;-139.92;73.21
12211;BME280;6168;42.658;23.298;2024-02-04T03:11:29;61682.38;;;-139.92;73.15
12211;BME280;6168;42.658;23.298;2024-02-04T03:13:55;61669.88;;;-139.92;73.67
12211;BME280;6168;42.658;23.298;2024-02-04T03:16:23;61667.81;;;-139.92;73.85
12211;BME280;6168;42.658;23.298;2024-02-04T03:18:51;61636.59;;;-139.92;73.90
12211;BME280;6168;42.658;23.298;2024-02-04T03:21:18;61684.44;;;-139.92;74.27
12211;BME280;6168;42.658;23.298;2024-02-04T03:23:44;61680.28;;;-139.92;74.16
12211;BME280;6168;42.658;23.298;2024-02-04T03:26:11;61676.13;;;-139.92;74.01
12211;BME280;6168;42.658;23.298;2024-02-04T03:28:38;61655.31;;;-139.92;74.38
12211;BME280;6168;42.658;23.298;2024-02-04T03:31:04;61678.22;;;-139.92;74.17
12211;BME280;6168;42.658;23.298;2024-02-04T03:33:32;61676.13;;;-139.92;73.92
12211;BME280;6168;42.658;23.298;2024-02-04T03:35:59;61638.69;;;-139.92;72.82
12211;BME280;6168;42.658;23.298;2024-02-04T03:38:26;61667.81;;;-139.92;73.38
12211;BME280;6168;42.658;23.298;2024-02-04T03:40:52;61663.66;;;-139.92;73.30
12211;BME280;6168;42.658;23.298;2024-02-04T03:43:19;61680.28;;;-139.92;73.24
12211;BME280;6168;42.658;23.298;2024-02-04T03:45:46;61682.38;;;-139.92;73.65
12211;BME280;6168;42.658;23.298;2024-02-04T03:48:12;61659.47;;;-139.92;74.25
12211;BME280;6168;42.658;23.298;2024-02-04T03:50:41;61680.28;;;-139.92;74.81
12211;BME280;6168;42.658;23.298;2024-02-04T03:53:07;61680.28;;;-139.92;74.66
12211;BME280;6168;42.658;23.298;2024-02-04T03:55:34;61682.38;;;-139.92;75.14
12211;BME280;6168;42.658;23.298;2024-02-04T03:58:01;61709.41;;;-139.92;76.23
12211;BME280;6168;42.658;23.298;2024-02-04T04:00:27;61676.13;;;-139.92;76.88
12211;BME280;6168;42.658;23.298;2024-02-04T04:02:54;61688.59;;;-139.92;76.85
12211;BME280;6168;42.658;23.298;2024-02-04T04:05:21;61665.72;;;-139.92;76.42
12211;BME280;6168;42.658;23.298;2024-02-04T04:07:49;61694.84;;;-139.92;76.28
12211;BME280;6168;42.658;23.298;2024-02-04T04:10:16;61674.03;;;-139.92;75.35
12211;BME280;6168;42.658;23.298;2024-02-04T04:12:42;61713.59;;;-139.92;77.29
12211;BME280;6168;42.658;23.298;2024-02-04T04:15:09;61665.72;;;-139.92;76.51
12211;BME280;6168;42.658;23.298;2024-02-04T04:17:36;61674.03;;;-139.92;76.96
12211;BME280;6168;42.658;23.298;2024-02-04T04:20:03;61696.94;;;-139.92;76.91
12211;BME280;6168;42.658;23.298;2024-02-04T04:22:30;61655.31;;;-139.92;78.51
12211;BME280;6168;42.658;23.298;2024-02-04T04:24:59;61659.47;;;-139.92;78.02
12211;BME280;6168;42.658;23.298;2024-02-04T04:27:25;61663.66;;;-139.92;78.26
12211;BME280;6168;42.658;23.298;2024-02-04T04:29:52;61676.13;;;-139.92;78.32
12211;BME280;6168;42.658;23.298;2024-02-04T04:32:18;61665.72;;;-139.92;78.63
12211;BME280;6168;42.658;23.298;2024-02-04T04:34:45;61663.66;;;-139.92;78.19
12211;BME280;6168;42.658;23.298;2024-02-04T04:37:12;61667.81;;;-139.92;78.27
12211;BME280;6168;42.658;23.298;2024-02-04T04:39:38;61682.38;;;-139.92;78.64
12211;BME280;6168;42.658;23.298;2024-02-04T04:42:06;61682.38;;;-139.92;79.22
12211;BME280;6168;42.658;23.298;2024-02-04T04:44:33;61669.88;;;-139.92;79.52
12211;BME280;6168;42.658;23.298;2024-02-04T04:46:59;61657.41;;;-139.92;79.46
12211;BME280;6168;42.658;23.298;2024-02-04T04:49:25;61653.25;;;-139.92;79.63
12211;BME280;6168;42.658;23.298;2024-02-04T04:51:52;61678.22;;;-139.92;79.25
12211;BME280;6168;42.658;23.298;2024-02-04T04:54:19;61667.81;;;-139.92;78.46
12211;BME280;6168;42.658;23.298;2024-02-04T04:56:45;61649.06;;;-139.92;77.73
12211;BME280;6168;42.658;23.298;2024-02-04T04:59:14;61663.66;;;-139.92;77.11
12211;BME280;6168;42.658;23.298;2024-02-04T05:01:45;61630.34;;;-139.92;76.53
12211;BME280;6168;42.658;23.298;2024-02-04T05:04:11;61653.25;;;-139.92;76.43
12211;BME280;6168;42.658;23.298;2024-02-04T05:06:38;61638.69;;;-139.92;76.01
12211;BME280;6168;42.658;23.298;2024-02-04T05:09:05;61661.56;;;-139.92;75.62
12211;BME280;6168;42.658;23.298;2024-02-04T05:11:32;61651.16;;;-139.92;75.80
12211;BME280;6168;42.658;23.298;2024-02-04T05:13:58;61676.13;;;-139.92;76.15
12211;BME280;6168;42.658;23.298;2024-02-04T05:16:27;61663.66;;;-139.92;76.20
12211;BME280;6168;42.658;23.298;2024-02-04T05:18:54;61663.66;;;-139.92;76.38
12211;BME280;6168;42.658;23.298;2024-02-04T05:21:20;61655.31;;;-139.92;76.11
12211;BME280;6168;42.658;23.298;2024-02-04T05:23:47;61663.66;;;-139.92;76.02
12211;BME280;6168;42.658;23.298;2024-02-04T05:26:14;61682.38;;;-139.92;75.33
12211;BME280;6168;42.658;23.298;2024-02-04T05:28:43;61655.31;;;-139.92;75.01
12211;BME280;6168;42.658;23.298;2024-02-04T05:31:10;61688.59;;;-139.92;75.35
12211;BME280;6168;42.658;23.298;2024-02-04T05:33:38;61680.28;;;-139.92;75.13
12211;BME280;6168;42.658;23.298;2024-02-04T05:36:05;61676.13;;;-139.92;74.62
12211;BME280;6168;42.658;23.298;2024-02-04T05:38:31;61671.97;;;-139.92;74.24
12211;BME280;6168;42.658;23.298;2024-02-04T05:40:59;61671.97;;;-139.92;74.04
12211;BME280;6168;42.658;23.298;2024-02-04T05:43:26;61661.56;;;-139.92;74.06
12211;BME280;6168;42.658;23.298;2024-02-04T05:45:52;61678.22;;;-139.92;73.93
12211;BME280;6168;42.658;23.298;2024-02-04T05:48:20;61663.66;;;-139.92;74.00
12211;BME280;6168;42.658;23.298;2024-02-04T05:50:48;61659.47;;;-139.92;73.22
12211;BME280;6168;42.658;23.298;2024-02-04T05:53:15;61684.44;;;-139.92;73.25
12211;BME280;6168;42.658;23.298;2024-02-04T05:55:41;61684.44;;;-139.92;72.71
12211;BME280;6168;42.658;23.298;2024-02-04T05:58:08;61659.47;;;-139.92;72.81
12211;BME280;6168;42.658;23.298;2024-02-04T06:00:35;61665.72;;;-139.92;72.48
12211;BME280;6168;42.658;23.298;2024-02-04T06:03:02;61659.47;;;-139.92;72.29
12211;BME280;6168;42.658;23.298;2024-02-04T06:05:29;61667.81;;;-139.92;72.18
12211;BME280;6168;42.658;23.298;2024-02-04T06:07:57;61659.47;;;-139.92;71.86
12211;BME280;6168;42.658;23.298;2024-02-04T06:10:24;61665.72;;;-139.92;72.09
12211;BME280;6168;42.658;23.298;2024-02-04T06:12:50;61669.88;;;-139.92;72.77
12211;BME280;6168;42.658;23.298;2024-02-04T06:15:17;61647.00;;;-139.92;72.85
12211;BME280;6168;42.658;23.298;2024-02-04T06:17:46;61671.97;;;-139.92;72.84
12211;BME280;6168;42.658;23.298;2024-02-04T06:20:12;61644.91;;;-139.92;72.36
12211;BME280;6168;42.658;23.298;2024-02-04T06:22:39;61676.13;;;-139.92;72.90
12211;BME280;6168;42.658;23.298;2024-02-04T06:25:08;61644.91;;;-139.92;72.71
12211;BME280;6168;42.658;23.298;2024-02-04T06:27:34;61669.88;;;-139.92;73.05
12211;BME280;6168;42.658;23.298;2024-02-04T06:30:01;61669.88;;;-139.92;73.38
12211;BME280;6168;42.658;23.298;2024-02-04T06:32:28;61644.91;;;-139.92;73.50
12211;BME280;6168;42.658;23.298;2024-02-04T06:34:54;61663.66;;;-139.92;73.43
12211;BME280;6168;42.658;23.298;2024-02-04T06:37:21;61663.66;;;-139.92;73.48
12211;BME280;6168;42.658;23.298;2024-02-04T06:39:48;61676.13;;;-139.92;73.08
12211;BME280;6168;42.658;23.298;2024-02-04T06:42:16;61676.13;;;-139.92;73.28
12211;BME280;6168;42.658;23.298;2024-02-04T06:44:43;61649.06;;;-139.92;72.84
12211;BME280;6168;42.658;23.298;2024-02-04T06:47:10;61661.56;;;-139.92;73.04
12211;BME280;6168;42.658;23.298;2024-02-04T06:49:37;61665.72;;;-139.92;73.16
12211;BME280;6168;42.658;23.298;2024-02-04T06:52:04;61671.97;;;-139.92;72.97
12211;BME280;6168;42.658;23.298;2024-02-04T06:54:31;61628.28;;;-139.92;72.51
12211;BME280;6168;42.658;23.298;2024-02-04T06:56:57;61638.69;;;-139.92;72.86
12211;BME280;6168;42.658;23.298;2024-02-04T06:59:25;61651.16;;;-139.92;73.27
12211;BME280;6168;42.658;23.298;2024-02-04T07:01:52;61655.31;;;-139.92;72.11
12211;BME280;6168;42.658;23.298;2024-02-04T07:04:19;61655.31;;;-139.92;71.65
12211;BME280;6168;42.658;23.298;2024-02-04T07:06:47;61671.97;;;-139.92;71.99
12211;BME280;6168;42.658;23.298;2024-02-04T07:09:13;61667.81;;;-139.92;72.16
12211;BME280;6168;42.658;23.298;2024-02-04T07:11:40;61642.84;;;-139.92;72.34
12211;BME280;6168;42.658;23.298;2024-02-04T07:14:07;61655.31;;;-139.92;71.92
12211;BME280;6168;42.658;23.298;2024-02-04T07:16:35;61657.41;;;-139.92;72.26
12211;BME280;6168;42.658;23.298;2024-02-04T07:19:01;61655.31;;;-139.92;72.23
12211;BME280;6168;42.658;23.298;2024-02-04T07:21:28;61676.13;;;-139.92;71.86
12211;BME280;6168;42.658;23.298;2024-02-04T07:23:55;61651.16;;;-139.92;71.82
12211;BME280;6168;42.658;23.298;2024-02-04T07:26:21;61647.00;;;-139.92;72.26
12211;BME280;6168;42.658;23.298;2024-02-04T07:28:48;61651.16;;;-139.92;71.74
12211;BME280;6168;42.658;23.298;2024-02-04T07:31:15;61651.16;;;-139.92;70.83
12211;BME280;6168;42.658;23.298;2024-02-04T07:33:43;61636.59;;;-139.92;70.66
12211;BME280;6168;42.658;23.298;2024-02-04T07:36:10;61638.69;;;-139.92;70.34
12211;BME280;6168;42.658;23.298;2024-02-04T07:38:36;61659.47;;;-139.92;70.29
12211;BME280;6168;42.658;23.298;2024-02-04T07:41:03;61663.66;;;-139.92;69.45
12211;BME280;6168;42.658;23.298;2024-02-04T07:43:30;61661.56;;;-139.92;69.37
12211;BME280;6168;42.658;23.298;2024-02-04T07:45:57;61642.84;;;-139.92;69.24
12211;BME280;6168;42.658;23.298;2024-02-04T07:48:23;61663.66;;;-139.92;68.73
12211;BME280;6168;42.658;23.298;2024-02-04T07:50:51;61630.34;;;-139.92;68.59
12211;BME280;6168;42.658;23.298;2024-02-04T07:53:18;61655.31;;;-139.92;69.03
12211;BME280;6168;42.658;23.298;2024-02-04T07:55:45;61649.06;;;-139.92;68.33
12211;BME280;6168;42.658;23.298;2024-02-04T07:58:11;61640.75;;;-139.92;68.19
12211;BME280;6168;42.658;23.298;2024-02-04T08:00:38;61630.34;;;-139.92;67.71
12211;BME280;6168;42.658;23.298;2024-02-04T08:03:04;61640.75;;;-139.92;66.44
12211;BME280;6168;42.658;23.298;2024-02-04T08:05:31;61619.94;;;-139.92;66.72
12211;BME280;6168;42.658;23.298;2024-02-04T08:08:01;61647.00;;;-139.92;66.17
12211;BME280;6168;42.658;23.298;2024-02-04T08:10:29;61653.25;;;-139.92;65.54
12211;BME280;6168;42.658;23.298;2024-02-04T08:12:55;61605.38;;;-139.92;65.26
12211;BME280;6168;42.658;23.298;2024-02-04T08:15:22;61609.53;;;-139.92;65.93
12211;BME280;6168;42.658;23.298;2024-02-04T08:17:49;61601.22;;;-139.92;63.46
12211;BME280;6168;42.658;23.298;2024-02-04T08:20:17;61605.38;;;-139.92;62.94
12211;BME280;6168;42.658;23.298;2024-02-04T08:22:44;61626.19;;;-139.92;63.51
12211;BME280;6168;42.658;23.298;2024-02-04T08:25:12;61572.09;;;-139.92;62.76
12211;BME280;6168;42.658;23.298;2024-02-04T08:27:39;61565.84;;;-139.92;61.43
12211;BME280;6168;42.658;23.298;2024-02-04T08:30:06;61578.34;;;-139.92;60.69
12211;BME280;6168;42.658;23.298;2024-02-04T08:32:32;61588.75;;;-139.92;60.99
12211;BME280;6168;42.658;23.298;2024-02-04T08:34:59;61590.81;;;-139.92;60.12
12211;BME280;6168;42.658;23.298;2024-02-04T08:37:26;61594.97;;;-139.92;60.23
12211;BME280;6168;42.658;23.298;2024-02-04T08:39:52;61576.25;;;-139.92;60.33
12211;BME280;6168;42.658;23.298;2024-02-04T08:42:20;61584.56;;;-139.92;59.28
12211;BME280;6168;42.658;23.298;2024-02-04T08:44:47;61586.66;;;-139.92;59.78
12211;BME280;6168;42.658;23.298;2024-02-04T08:47:14;61574.16;;;-139.92;60.01
12211;BME280;6168;42.658;23.298;2024-02-04T08:49:42;61601.22;;;-139.92;59.66
12211;BME280;6168;42.658;23.298;2024-02-04T08:52:09;61570.00;;;-139.92;60.09
12211;BME280;6168;42.658;23.298;2024-02-04T08:54:35;61607.47;;;-139.92;60.34
12211;BME280;6168;42.658;23.298;2024-02-04T08:57:02;61588.75;;;-139.92;59.84
12211;BME280;6168;42.658;23.298;2024-02-04T08:59:30;61565.84;;;-139.92;59.93
12211;BME280;6168;42.658;23.298;2024-02-04T09:01:57;61603.31;;;-139.92;60.70
12211;BME280;6168;42.658;23.298;2024-02-04T09:04:22;61597.06;;;-139.92;61.03
12211;BME280;6168;42.658;23.298;2024-02-04T09:06:49;61594.97;;;-139.92;61.58
12211;BME280;6168;42.658;23.298;2024-02-04T09:09:16;61601.22;;;-139.92;61.35
12211;BME280;6168;42.658;23.298;2024-02-04T09:11:42;61615.78;;;-139.92;62.00
12211;BME280;6168;42.658;23.298;2024-02-04T09:14:09;61617.88;;;-139.92;62.04
12211;BME280;6168;42.658;23.298;2024-02-04T09:16:38;61617.88;;;-139.92;62.20
12211;BME280;6168;42.658;23.298;2024-02-04T09:19:05;61584.56;;;-139.92;62.81
12211;BME280;6168;42.658;23.298;2024-02-04T09:21:31;61582.50;;;-139.92;62.91
12211;BME280;6168;42.658;23.298;2024-02-04T09:23:58;61599.13;;;-139.92;62.89
12211;BME280;6168;42.658;23.298;2024-02-04T09:26:25;61624.09;;;-139.92;62.78
12211;BME280;6168;42.658;23.298;2024-02-04T09:28:51;61580.41;;;-139.92;62.99
12211;BME280;6168;42.658;23.298;2024-02-04T09:31:18;61580.41;;;-139.92;63.36
12211;BME280;6168;42.658;23.298;2024-02-04T09:33:46;61590.81;;;-139.92;63.12
12211;BME280;6168;42.658;23.298;2024-02-04T09:36:13;61622.03;;;-139.92;63.78
12211;BME280;6168;42.658;23.298;2024-02-04T09:38:40;61603.31;;;-139.92;63.72
12211;BME280;6168;42.658;23.298;2024-02-04T09:41:06;61597.06;;;-139.92;63.67
12211;BME280;6168;42.658;23.298;2024-02-04T09:43:33;61605.38;;;-139.92;63.35
12211;BME280;6168;42.658;23.298;2024-02-04T09:46:01;61584.56;;;-139.92;63.23
12211;BME280;6168;42.658;23.298;2024-02-04T09:48:28;61567.94;;;-139.92;63.73
12211;BME280;6168;42.658;23.298;2024-02-04T09:50:57;61590.81;;;-139.92;63.37
12211;BME280;6168;42.658;23.298;2024-02-04T09:53:26;61601.22;;;-139.92;63.21
12211;BME280;6168;42.658;23.298;2024-02-04T09:55:55;61567.94;;;-139.92;63.92
12211;BME280;6168;42.658;23.298;2024-02-04T09:58:22;61572.09;;;-139.92;63.48
12211;BME280;6168;42.658;23.298;2024-02-04T10:00:49;61572.09;;;-139.92;63.18
12211;BME280;6168;42.658;23.298;2024-02-04T10:03:17;61572.09;;;-139.92;62.97
12211;BME280;6168;42.658;23.298;2024-02-04T10:05:43;61574.16;;;-139.92;63.07
12211;BME280;6168;42.658;23.298;2024-02-04T10:08:11;61555.44;;;-139.92;62.68
12211;BME280;6168;42.658;23.298;2024-02-04T10:10:38;61547.13;;;-139.92;62.23
12211;BME280;6168;42.658;23.298;2024-02-04T10:13:06;61545.03;;;-139.92;61.49
12211;BME280;6168;42.658;23.298;2024-02-04T10:15:33;61565.84;;;-139.92;61.43
12211;BME280;6168;42.658;23.298;2024-02-04T10:18:02;61576.25;;;-139.92;62.67
12211;BME280;6168;42.658;23.298;2024-02-04T10:20:29;61553.38;;;-139.92;63.28
12211;BME280;6168;42.658;23.298;2024-02-04T10:22:56;61561.69;;;-139.92;64.02
12211;BME280;6168;42.658;23.298;2024-02-04T10:25:24;61559.59;;;-139.92;63.82
12211;BME280;6168;42.658;23.298;2024-02-04T10:27:50;61555.44;;;-139.92;64.85
12211;BME280;6168;42.658;23.298;2024-02-04T10:30:18;61557.53;;;-139.92;65.03
12211;BME280;6168;42.658;23.298;2024-02-04T10:32:45;61570.00;;;-139.92;65.47
12211;BME280;6168;42.658;23.298;2024-02-04T10:35:11;61559.59;;;-139.92;65.90
12211;BME280;6168;42.658;23.298;2024-02-04T10:37:38;61584.56;;;-139.92;66.60
12211;BME280;6168;42.658;23.298;2024-02-04T10:40:05;61565.84;;;-139.92;67.17
12211;BME280;6168;42.658;23.298;2024-02-04T10:42:34;61588.75;;;-139.92;67.24
12211;BME280;6168;42.658;23.298;2024-02-04T10:45:01;61580.41;;;-139.92;67.04
12211;BME280;6168;42.658;23.298;2024-02-04T10:47:32;61565.84;;;-139.92;67.18
12211;BME280;6168;42.658;23.298;2024-02-04T10:49:59;61542.97;;;-139.92;66.97
12211;BME280;6168;42.658;23.298;2024-02-04T10:52:28;61601.22;;;-139.92;66.50
12211;BME280;6168;42.658;23.298;2024-02-04T10:54:57;61578.34;;;-139.92;67.25
12211;BME280;6168;42.658;23.298;2024-02-04T10:57:24;61578.34;;;-139.92;66.77
12211;BME280;6168;42.658;23.298;2024-02-04T10:59:53;61570.00;;;-139.92;67.24
12211;BME280;6168;42.658;23.298;2024-02-04T11:02:20;61607.47;;;-139.92;67.23
12211;BME280;6168;42.658;23.298;2024-02-04T11:04:48;61559.59;;;-139.92;67.40
12211;BME280;6168;42.658;23.298;2024-02-04T11:07:15;61599.13;;;-139.92;67.94
12211;BME280;6168;42.658;23.298;2024-02-04T11:09:42;61582.50;;;-139.92;67.67
12211;BME280;6168;42.658;23.298;2024-02-04T11:12:12;61574.16;;;-139.92;67.60
12211;BME280;6168;42.658;23.298;2024-02-04T11:14:41;61582.50;;;-139.92;67.46
12211;BME280;6168;42.658;23.298;2024-02-04T11:17:31;61588.75;;;-139.92;67.31
12211;BME280;6168;42.658;23.298;2024-02-04T11:20:08;61599.13;;;-139.92;67.46
12211;BME280;6168;42.658;23.298;2024-02-04T11:22:44;61580.41;;;-139.92;66.94
12211;BME280;6168;42.658;23.298;2024-02-04T11:25:19;61547.13;;;-139.92;66.76
12211;BME280;6168;42.658;23.298;2024-02-04T11:27:50;61574.16;;;-139.92;66.52
12211;BME280;6168;42.658;23.298;2024-02-04T11:30:17;61578.34;;;-139.92;66.23
12211;BME280;6168;42.658;23.298;2024-02-04T11:32:46;61567.94;;;-139.92;66.16
12211;BME280;6168;42.658;23.298;2024-02-04T11:35:12;61563.78;;;-139.92;66.08
12211;BME280;6168;42.658;23.298;2024-02-04T11:37:40;61572.09;;;-139.92;65.82
12211;BME280;6168;42.658;23.298;2024-02-04T11:40:13;61553.38;;;-139.92;66.23
12211;BME280;6168;42.658;23.298;2024-02-04T11:42:40;61567.94;;;-139.92;65.80
12211;BME280;6168;42.658;23.298;2024-02-04T11:45:08;61549.22;;;-139.92;65.36
12211;BME280;6168;42.658;23.298;2024-02-04T11:47:36;61511.75;;;-139.92;65.65
12211;BME280;6168;42.658;23.298;2024-02-04T11:50:05;61567.94;;;-139.92;65.00
12211;BME280;6168;42.658;23.298;2024-02-04T11:52:32;61547.13;;;-139.92;64.66
12211;BME280;6168;42.658;23.298;2024-02-04T11:54:59;61551.28;;;-139.92;64.83
12211;BME280;6168;42.658;23.298;2024-02-04T11:57:25;61553.38;;;-139.92;64.01
12211;BME280;6168;42.658;23.298;2024-02-04T11:59:52;61530.47;;;-139.92;64.23
12211;BME280;6168;42.658;23.298;2024-02-04T12:02:20;61530.47;;;-139.92;63.99
12211;BME280;6168;42.658;23.298;2024-02-04T12:04:47;61542.97;;;-139.92;63.13
12211;BME280;6168;42.658;23.298;2024-02-04T12:07:15;61528.41;;;-139.92;63.31
12211;BME280;6168;42.658;23.298;2024-02-04T12:09:43;61538.81;;;-139.92;63.88
12211;BME280;6168;42.658;23.298;2024-02-04T12:12:09;61553.38;;;-139.92;63.75
12211;BME280;6168;42.658;23.298;2024-02-04T12:14:37;61547.13;;;-139.92;64.21
12211;BME280;6168;42.658;23.298;2024-02-04T12:17:06;61545.03;;;-139.92;64.02
12211;BME280;6168;42.658;23.298;2024-02-04T12:19:33;61530.47;;;-139.92;63.35
12211;BME280;6168;42.658;23.298;2024-02-04T12:22:00;61513.84;;;-139.92;63.36
12211;BME280;6168;42.658;23.298;2024-02-04T12:24:32;61538.81;;;-139.92;63.26
12211;BME280;6168;42.658;23.298;2024-02-04T12:26:59;61542.97;;;-139.92;62.89
12211;BME280;6168;42.658;23.298;2024-02-04T12:29:26;61530.47;;;-139.92;62.60
12211;BME280;6168;42.658;23.298;2024-02-04T12:31:57;61518.00;;;-139.92;62.45
12211;BME280;6168;42.658;23.298;2024-02-04T12:34:24;61528.41;;;-139.92;61.97
12211;BME280;6168;42.658;23.298;2024-02-04T12:36:57;61530.47;;;-139.92;61.45
12211;BME280;6168;42.658;23.298;2024-02-04T12:39:23;61507.59;;;-139.92;60.91
12211;BME280;6168;42.658;23.298;2024-02-04T12:41:52;61493.03;;;-139.92;60.08